Time;durP1;ratioP1;P1;durP2;ratioP2;P2;SDS_P1;SDS_P2;PMS_P1;PMS_P2;Temp;Humidity;BMP_temperature;BMP_pressure;BME280_temperature;BME280_humidity;BME280_pressure;Samples;Min_cycle;Max_cycle;Signal;HPM_P1;HPM_P2
2024/02/02 12:31:53;;;;;;;;;;;;;;;;;;5616253;23;20280;-91
2024/02/02 12:34:19;;;;;;;;;;;;;;;;;;4937013;29;20017;-91
2024/02/02 12:36:44;;;;;;;;;;;;;;;;;;4938758;29;19954;-91
2024/02/02 12:39:10;;;;;;;;;;;;;;;;;;4937219;29;19915;-92
2024/02/02 12:41:35;;;;;;;;;;;;;;;;;;4938380;29;19950;-93
2024/02/02 12:44:00;;;;;;;;;;;;;;;;;;4936930;29;19917;-90
2024/02/02 12:46:27;;;;;;;;;;;;;;;;;;4938394;29;19922;-91
2024/02/02 12:48:52;;;;;;;;;;;;;;;;;;4937227;29;20009;-91
2024/02/02 16:57:59;;;;;;;;;;;;;;;;;;4952394;28;19927;-94
2024/02/02 17:00:24;;;;;;;;;;;;;;;;;;4938812;29;19926;-93
2024/02/02 17:02:51;;;;;;;;;;;;;;;;;;4939167;29;19915;-95
2024/02/02 17:05:16;;;;;;;;;;;;;;;;;;4937209;29;19918;-93
2024/02/02 17:07:41;;;;;;;;;;;;;;;;;;4938235;29;19915;-93
2024/02/02 17:10:08;;;;;;;;;;;;;;;;;;4937915;29;20032;-94
2024/02/02 17:12:35;;;;;;;;;;;;;;;;;;4922067;29;19919;-94
2024/02/02 17:15:02;;;;;;;;;;;;;;;;;;4937183;29;19915;-92
2024/02/02 17:17:28;;;;;;;;;;;;;;;;;;4938452;29;19915;-94
2024/02/02 17:19:53;;;;;;;;;;;;;;;;;;4937643;29;20053;-94
2024/02/02 17:22:18;;;;;;;;;;;;;;;;;;4937438;29;19918;-95
2024/02/02 17:24:44;;;;;;;;;;;;;;;;;;4937070;29;19970;-94
2024/02/02 17:27:09;;;;;;;;;;;;;;;;;;4936987;29;19919;-95
2024/02/02 17:29:38;;;;;;;;;;;;;;;;;;4937254;29;19918;-94
2024/02/02 17:32:04;;;;;;;;;;;;;;;;;;4937940;29;19914;-94
2024/02/02 17:34:29;;;;;;;;;;;;;;;;;;4936597;29;19969;-93
2024/02/02 17:36:55;;;;;;;;;;;;;;;;;;4938415;29;19979;-95
2024/02/02 17:39:20;;;;;;;;;;;;;;;;;;4939240;29;20350;-94
2024/02/02 17:41:46;;;;;;;;;;;;;;;;;;4943071;29;19919;-94
2024/02/02 17:44:12;;;;;;;;;;;;;;;;;;4937115;29;19934;-94
2024/02/02 17:46:37;;;;;;;;;;;;;;;;;;4936726;29;19915;-96
2024/02/02 17:49:02;;;;;;;;;;;;;;;;;;4940571;29;19922;-95
2024/02/02 17:51:28;;;;;;;;;;;;;;;;;;4943624;29;19963;-96
2024/02/02 17:53:54;;;;;;;;;;;;;;;;;;4939588;29;20341;-95
2024/02/02 17:56:20;;;;;;;;;;;;;;;;;;4938287;29;19910;-94
2024/02/02 17:58:46;;;;;;;;;;;;;;;;;;4932705;29;19922;-92
2024/02/02 18:01:11;;;;;;;;;;;;;;;;;;4937173;29;20255;-92
2024/02/02 18:03:37;;;;;;;;;;;;;;;;;;4935800;29;19917;-93
2024/02/02 18:06:03;;;;;;;;;;;;;;;;;;4936339;29;19921;-93
2024/02/02 18:08:30;;;;;;;;;;;;;;;;;;4936181;29;19954;-90
2024/02/02 18:10:55;;;;;;;;;;;;;;;;;;4936103;29;20321;-94
2024/02/02 18:13:21;;;;;;;;;;;;;;;;;;4937912;29;19915;-94
2024/02/02 18:15:48;;;;;;;;;;;;;;;;;;4936849;29;20258;-90
2024/02/02 18:18:15;;;;;;;;;;;;;;;;;;4935401;29;19914;-92
2024/02/02 18:20:40;;;;;;;;;;;;;;;;;;4940879;29;19915;-95
2024/02/02 18:23:06;;;;;;;;;;;;;;;;;;4938630;29;19958;-92
2024/02/02 18:25:31;;;;;;;;;;;;;;;;;;4936222;29;19914;-93
2024/02/02 18:27:56;;;;;;;;;;;;;;;;;;4936121;29;19915;-93
2024/02/02 18:30:25;;;;;;;;;;;;;;;;;;4937160;29;19915;-94
2024/02/02 18:32:50;;;;;;;;;;;;;;;;;;4920301;29;20025;-89
2024/02/02 18:35:16;;;;;;;;;;;;;;;;;;4935723;29;20385;-89
2024/02/02 18:37:41;;;;;;;;;;;;;;;;;;4935724;29;19915;-89
2024/02/02 18:40:07;;;;;;;;;;;;;;;;;;4935508;29;19921;-85
2024/02/02 18:42:32;;;;;;;;;;;;;;;;;;4935371;29;19914;-87
2024/02/02 18:44:57;;;;;;;;;;;;;;;;;;4935303;29;19922;-89
2024/02/02 18:47:23;;;;;;;;;;;;;;;;;;4935661;29;19954;-91
2024/02/02 18:49:48;;;;;;;;;;;;;;;;;;4935672;29;19918;-90
2024/02/02 18:52:13;;;;;;;;;;;;;;;;;;4935614;29;19914;-90
2024/02/02 18:54:39;;;;;;;;;;;;;;;;;;4935539;29;20013;-92
2024/02/02 18:57:05;;;;;;;;;;;;;;;;;;4935887;29;19914;-90
2024/02/02 18:59:30;;;;;;;;;;;;;;;;;;4936668;29;19925;-91
2024/02/02 19:01:56;;;;;;;;;;;;;;;;;;4940193;29;19914;-91
2024/02/02 19:04:21;;;;;;;;;;;;;;;;;;4941462;29;19967;-93
2024/02/02 19:06:47;;;;;;;;;;;;;;;;;;4936870;29;19918;-91
2024/02/02 19:09:12;;;;;;;;;;;;;;;;;;4935380;29;19961;-89
2024/02/02 19:11:38;;;;;;;;;;;;;;;;;;4935748;29;20001;-90
2024/02/02 19:14:05;;;;;;;;;;;;;;;;;;4935622;29;19922;-89
2024/02/02 19:16:30;;;;;;;;;;;;;;;;;;4935622;29;20285;-90
2024/02/02 19:18:56;;;;;;;;;;;;;;;;;;4935892;29;19923;-91
2024/02/02 19:21:22;;;;;;;;;;;;;;;;;;4935419;29;20278;-90
2024/02/02 19:23:48;;;;;;;;;;;;;;;;;;4916830;29;19914;-92
2024/02/02 19:26:13;;;;;;;;;;;;;;;;;;4916672;29;19965;-92
2024/02/02 19:28:39;;;;;;;;;;;;;;;;;;4918286;29;19938;-91
2024/02/02 19:31:06;;;;;;;;;;;;;;;;;;4921312;29;20002;-91
2024/02/02 19:33:32;;;;;;;;;;;;;;;;;;4923088;29;20377;-90
2024/02/02 19:35:57;;;;;;;;;;;;;;;;;;4922408;29;19911;-90
2024/02/02 19:38:24;;;;;;;;;;;;;;;;;;4921890;29;20009;-91
2024/02/02 19:40:55;;;;;;;;;;;;;;;;;;4923177;29;19915;-91
2024/02/02 19:43:20;;;;;;;;;;;;;;;;;;4922361;29;19918;-91
2024/02/02 19:45:46;;;;;;;;;;;;;;;;;;4922369;29;19915;-93
2024/02/02 19:48:11;;;;;;;;;;;;;;;;;;4920961;29;19935;-91
2024/02/02 19:50:37;;;;;;;;;;;;;;;;;;4919859;29;19954;-89
2024/02/02 19:53:02;;;;;;;;;;;;;;;;;;4920221;29;20381;-92
2024/02/02 19:55:29;;;;;;;;;;;;;;;;;;4920598;29;20010;-90
2024/02/02 19:57:55;;;;;;;;;;;;;;;;;;4919253;29;19985;-89
2024/02/02 20:00:22;;;;;;;;;;;;;;;;;;4919602;29;20378;-89
2024/02/02 20:02:50;;;;;;;;;;;;;;;;;;4920740;29;19922;-89
2024/02/02 20:05:16;;;;;;;;;;;;;;;;;;4919204;29;19919;-90
2024/02/02 20:07:41;;;;;;;;;;;;;;;;;;4919323;29;19921;-91
2024/02/02 20:10:08;;;;;;;;;;;;;;;;;;4919559;29;19975;-90
2024/02/02 20:12:33;;;;;;;;;;;;;;;;;;4919933;29;19921;-90
2024/02/02 20:14:59;;;;;;;;;;;;;;;;;;4919102;29;20001;-88
2024/02/02 20:17:25;;;;;;;;;;;;;;;;;;4918668;29;20259;-88
2024/02/02 20:19:50;;;;;;;;;;;;;;;;;;4920228;29;20421;-89
2024/02/02 20:22:15;;;;;;;;;;;;;;;;;;4919267;29;19918;-92
2024/02/02 20:24:41;;;;;;;;;;;;;;;;;;4918918;29;20005;-92
2024/02/02 20:27:06;;;;;;;;;;;;;;;;;;4919644;29;19919;-90
2024/02/02 20:29:32;;;;;;;;;;;;;;;;;;4919349;29;19957;-89
2024/02/02 20:31:58;;;;;;;;;;;;;;;;;;4919238;29;19970;-91
2024/02/02 20:34:30;;;;;;;;;;;;;;;;;;4918796;29;19978;-91
2024/02/02 20:36:55;;;;;;;;;;;;;;;;;;4918915;29;20018;-91
2024/02/02 20:39:21;;;;;;;;;;;;;;;;;;4923701;29;19950;-95
2024/02/02 20:41:46;;;;;;;;;;;;;;;;;;4925369;29;19915;-94
2024/02/02 20:44:11;;;;;;;;;;;;;;;;;;4924973;29;19911;-95
2024/02/02 20:46:37;;;;;;;;;;;;;;;;;;4919866;29;19922;-95
2024/02/02 20:49:02;;;;;;;;;;;;;;;;;;4922449;29;19915;-96
2024/02/02 20:51:27;;;;;;;;;;;;;;;;;;4921018;29;19911;-95
2024/02/02 20:53:53;;;;;;;;;;;;;;;;;;4921499;29;19925;-95
2024/02/02 20:56:18;;;;;;;;;;;;;;;;;;4921118;29;19911;-95
2024/02/02 20:58:44;;;;;;;;;;;;;;;;;;4921054;29;19919;-96
2024/02/02 21:01:09;;;;;;;;;;;;;;;;;;4920648;29;20006;-94
2024/02/02 21:03:35;;;;;;;;;;;;;;;;;;4921566;29;19967;-94
2024/02/02 21:06:00;;;;;;;;;;;;;;;;;;4920673;29;19915;-94
2024/02/02 21:08:26;;;;;;;;;;;;;;;;;;4919879;29;19919;-94
2024/02/02 21:10:51;;;;;;;;;;;;;;;;;;4920791;29;19918;-92
2024/02/02 21:13:18;;;;;;;;;;;;;;;;;;4922626;29;19915;-95
2024/02/02 21:15:43;;;;;;;;;;;;;;;;;;4927295;29;19919;-96
2024/02/02 21:18:14;;;;;;;;;;;;;;;;;;4934785;29;19923;-93
2024/02/02 21:20:44;;;;;;;;;;;;;;;;;;4939111;29;19967;-94
2024/02/02 21:23:09;;;;;;;;;;;;;;;;;;4924302;29;19918;-96
2024/02/02 21:25:35;;;;;;;;;;;;;;;;;;4923416;29;20388;-96
2024/02/02 21:28:00;;;;;;;;;;;;;;;;;;4922230;29;19918;-95
2024/02/02 21:30:25;;;;;;;;;;;;;;;;;;4923339;29;19958;-96
2024/02/02 21:32:51;;;;;;;;;;;;;;;;;;4921899;29;20445;-96
2024/02/02 21:35:16;;;;;;;;;;;;;;;;;;4922864;29;19914;-96
2024/02/02 21:37:41;;;;;;;;;;;;;;;;;;4922241;29;19915;-96
2024/02/02 21:40:08;;;;;;;;;;;;;;;;;;4920685;29;20442;-94
2024/02/02 21:42:33;;;;;;;;;;;;;;;;;;4920919;29;19915;-96
2024/02/02 21:44:58;;;;;;;;;;;;;;;;;;4919512;29;19969;-96
2024/02/02 21:47:24;;;;;;;;;;;;;;;;;;4920788;29;19982;-96
2024/02/02 21:49:49;;;;;;;;;;;;;;;;;;4921226;29;19922;-96
2024/02/02 21:52:16;;;;;;;;;;;;;;;;;;4919777;29;20073;-96
2024/02/02 21:54:42;;;;;;;;;;;;;;;;;;4921671;29;19915;-96
2024/02/02 21:57:07;;;;;;;;;;;;;;;;;;4922204;29;20005;-96
2024/02/02 21:59:32;;;;;;;;;;;;;;;;;;4922430;29;19919;-96
2024/02/02 22:01:58;;;;;;;;;;;;;;;;;;4922144;29;20029;-96
2024/02/02 22:04:23;;;;;;;;;;;;;;;;;;4921459;29;19919;-96
2024/02/02 22:06:48;;;;;;;;;;;;;;;;;;4921867;29;19914;-96
2024/02/02 22:09:14;;;;;;;;;;;;;;;;;;4921248;29;19919;-95
2024/02/02 22:11:39;;;;;;;;;;;;;;;;;;4922033;29;20009;-96
2024/02/02 22:14:04;;;;;;;;;;;;;;;;;;4921610;29;19962;-96
2024/02/02 22:16:31;;;;;;;;;;;;;;;;;;4919721;29;19946;-96
2024/02/02 22:18:57;;;;;;;;;;;;;;;;;;4918391;29;19914;-96
2024/02/02 22:21:25;;;;;;;;;;;;;;;;;;4918457;29;19915;-95
2024/02/02 22:23:51;;;;;;;;;;;;;;;;;;4920234;29;19945;-96
2024/02/02 22:26:18;;;;;;;;;;;;;;;;;;4920625;29;19915;-96
2024/02/02 22:28:43;;;;;;;;;;;;;;;;;;4918821;29;19974;-95
2024/02/02 22:31:15;;;;;;;;;;;;;;;;;;4917808;29;19915;-95
2024/02/02 22:33:40;;;;;;;;;;;;;;;;;;4917735;29;19915;-95
2024/02/02 22:36:05;;;;;;;;;;;;;;;;;;4917707;29;20441;-96
2024/02/02 22:38:33;;;;;;;;;;;;;;;;;;4917662;29;20397;-95
2024/02/02 22:40:58;;;;;;;;;;;;;;;;;;4917467;29;19915;-96
2024/02/02 22:43:23;;;;;;;;;;;;;;;;;;4917632;29;19911;-96
2024/02/02 22:45:49;;;;;;;;;;;;;;;;;;4918693;29;19923;-96
2024/02/02 22:48:14;;;;;;;;;;;;;;;;;;4917761;29;19918;-95
2024/02/02 22:50:40;;;;;;;;;;;;;;;;;;4918280;29;20263;-96
2024/02/02 22:53:05;;;;;;;;;;;;;;;;;;4918763;29;19965;-96
2024/02/02 22:55:30;;;;;;;;;;;;;;;;;;4920326;29;19915;-95
2024/02/02 22:57:55;;;;;;;;;;;;;;;;;;4923502;29;19952;-95
2024/02/02 23:00:21;;;;;;;;;;;;;;;;;;4924490;29;19919;-96
2024/02/02 23:02:46;;;;;;;;;;;;;;;;;;4924802;29;19970;-95
2024/02/02 23:05:12;;;;;;;;;;;;;;;;;;4931583;29;19921;-95
2024/02/02 23:07:37;;;;;;;;;;;;;;;;;;4931384;29;19915;-96
2024/02/02 23:10:03;;;;;;;;;;;;;;;;;;4931565;29;19915;-95
2024/02/02 23:12:28;;;;;;;;;;;;;;;;;;4931982;29;19965;-96
2024/02/02 23:14:53;;;;;;;;;;;;;;;;;;4911907;29;19919;-96
2024/02/02 23:17:19;;;;;;;;;;;;;;;;;;4924888;29;19915;-96
2024/02/02 23:19:44;;;;;;;;;;;;;;;;;;4921831;29;19915;-96
2024/02/02 23:22:09;;;;;;;;;;;;;;;;;;4921625;29;19915;-96
2024/02/02 23:24:35;;;;;;;;;;;;;;;;;;4921060;29;19914;-96
2024/02/02 23:27:00;;;;;;;;;;;;;;;;;;4920543;29;20014;-96
2024/02/02 23:29:25;;;;;;;;;;;;;;;;;;4921479;29;20377;-91
2024/02/02 23:31:51;;;;;;;;;;;;;;;;;;4920447;29;19915;-91
2024/02/02 23:34:16;;;;;;;;;;;;;;;;;;4920425;29;19915;-91
2024/02/02 23:36:41;;;;;;;;;;;;;;;;;;4920749;29;19922;-91
2024/02/02 23:39:08;;;;;;;;;;;;;;;;;;4920247;29;19930;-94
2024/02/02 23:41:34;;;;;;;;;;;;;;;;;;4920845;29;19926;-86
2024/02/02 23:43:59;;;;;;;;;;;;;;;;;;4922983;29;19915;-94
